Pagina principale
METAR-TAF:

METAR-TAF

Aeroporti :

Aeroporto di Libreville-Léon M'Ba

Libreville, Gabon

latitudine: 00-27N, longitudine: 009-25E, altezza: 12 m

Osservazione

Il bollettino è stato emesso 17 minuti fa, alle 07:30 UTC
Vento 5 kt da est/nord-est
Temperature 25°C
Umidità 89%
Pressione 1012 hPa
Visibilità 10 km o più
Nubi sparse ad un'altezza di 900 ft
Nuvoloso ad un'altezza di 2000 ft

METAR: FOOL 210730Z 06005KT 9999 SCT009 BKN020 25/23 Q1012 NOSIG

Ora: 08:47 (07:47 UTC)

Previsione

Il bollettino è stato emesso 2 ore e 39 minuti fa, alle 05:08 UTC
Previsione valida dal 21 alle 06 UTC al 22 alle 12 UTC
Vento 8 kt da sud/sud-ovest
Visibilità 10 km o più
Nubi sparse ad un'altezza di 1100 ft
Poco nuvoloso ad un'altezza di 1800 ft, Cumulonembo.
Nuvoloso ad un'altezza di 3500 ft
Probabilità 30% :
Temporaneamente
dal 21 alle 06 UTC al 21 alle 10 UTC
temporale

TAF: FOOL 210508Z 2106/2212 21008KT 9999 SCT011 FEW018CB BKN035 PROB30 TEMPO 2106/2110 TS

Osservazioni e previsioni meteorologiche di più di 4000 aeroporti (messaggi METAR e TAF).

Le stazioni disponibili sono rappresentate dai dischi gialli e rossi sulla carta.

Puntare il mouse per vedere il nome della stazione.

Clicca sopra per visualizzare le osservazioni e previsioni meteorologiche.

Per cambiare la mappa : fare clic sui pulsanti verdi con una croce nera per ingrandire, il pulsante verde con un trattino per diminuire, o sulla freccia verde per le mappe adiacenti.


METAR-TAF: